Time;durP1;ratioP1;P1;durP2;ratioP2;P2;SDS_P1;SDS_P2;PMS_P1;PMS_P2;Temp;Humidity;BMP_temperature;BMP_pressure;BME280_temperature;BME280_humidity;BME280_pressure;Samples;Min_cycle;Max_cycle;Signal;HPM_P1;HPM_P2
2022/04/26 03:36:24;;;;;;;;;40.00;31.80;;;;;13.62;53.18;101013.72;2100758;28;47334;-60
2022/04/26 03:37:24;;;;;;;;;32.00;30.00;;;;;13.64;52.95;101005.66;2095565;28;47885;-60
2022/04/26 03:38:25;;;;;;;;;35.25;32.75;;;;;13.63;53.29;101011.91;2098457;28;46877;-59
2022/04/26 03:39:26;;;;;;;;;33.75;32.00;;;;;13.63;53.54;101007.44;2097007;28;47438;-59
2022/04/26 03:40:27;;;;;;;;;37.00;33.00;;;;;13.61;53.14;101009.28;2099133;27;47602;-58
2022/04/26 03:41:28;;;;;;;;;35.00;33.20;;;;;13.60;53.35;100999.56;2098602;28;47633;-59
2022/04/26 03:42:28;;;;;;;;;35.50;32.25;;;;;13.61;53.57;101003.09;2095885;28;47456;-59
2022/04/26 03:43:29;;;;;;;;;34.00;31.25;;;;;13.61;53.32;101003.97;2098624;28;48059;-60
2022/04/26 03:44:30;;;;;;;;;33.25;31.00;;;;;13.61;53.34;101008.44;2098181;28;47284;-59
2022/04/26 03:45:30;;;;;;;;;37.50;34.25;;;;;13.61;53.36;101011.09;2095203;28;47324;-61
2022/04/26 03:46:30;;;;;;;;;36.25;33.75;;;;;13.60;53.35;101002.22;2096878;28;48319;-59
2022/04/26 03:47:31;;;;;;;;;36.00;33.75;;;;;13.59;53.32;101004.91;2095874;28;47306;-59
2022/04/26 03:48:32;;;;;;;;;33.00;31.50;;;;;13.59;53.15;101015.56;2095973;28;47917;-59
2022/04/26 03:49:33;;;;;;;;;35.00;31.40;;;;;13.59;53.49;101016.44;2089769;28;46874;-58
2022/04/26 03:50:33;;;;;;;;;39.75;35.00;;;;;13.59;53.45;101010.22;2095978;28;48202;-60
2022/04/26 03:51:33;;;;;;;;;39.75;33.00;;;;;13.58;53.42;101013.81;2096105;28;47763;-59
2022/04/26 03:52:34;;;;;;;;;39.00;33.50;;;;;13.57;53.40;101007.63;2095840;28;48132;-59
2022/04/26 03:53:34;;;;;;;;;35.75;33.00;;;;;13.55;53.42;101004.13;2095918;28;47601;-59
2022/04/26 03:54:35;;;;;;;;;42.25;34.25;;;;;13.55;53.54;100998.78;2096017;28;48008;-59
2022/04/26 03:55:35;;;;;;;;;29.25;28.00;;;;;13.57;53.54;101002.28;2095866;28;47686;-60
2022/04/26 03:56:36;;;;;;;;;38.25;33.00;;;;;13.56;53.43;101003.22;2095926;28;47962;-59
2022/04/26 03:57:37;;;;;;;;;41.25;35.00;;;;;13.55;53.37;101005.00;2095807;28;47799;-59
2022/04/26 03:58:37;;;;;;;;;40.00;33.20;;;;;13.57;53.49;101004.94;2094556;28;47124;-60
2022/04/26 03:59:37;;;;;;;;;38.00;34.00;;;;;13.57;53.06;101004.94;2095791;28;47457;-60
2022/04/26 04:00:38;;;;;;;;;40.25;33.25;;;;;13.58;53.57;101004.03;2095367;28;47778;-59
2022/04/26 04:01:39;;;;;;;;;39.25;36.00;;;;;13.58;53.29;101005.81;2095828;28;47907;-57
2022/04/26 04:02:39;;;;;;;;;35.80;32.40;;;;;13.60;53.47;101012.88;2095672;28;47667;-59
2022/04/26 04:03:40;;;;;;;;;34.75;32.25;;;;;13.60;53.45;101006.69;2095818;28;48134;-60
2022/04/26 04:04:40;;;;;;;;;40.00;34.00;;;;;13.60;53.58;101007.56;2095854;28;47234;-60
2022/04/26 04:05:42;;;;;;;;;36.75;33.50;;;;;13.59;53.65;101010.22;2088368;28;48256;-59
2022/04/26 04:06:42;;;;;;;;;37.60;32.60;;;;;13.58;53.77;101017.38;2090041;28;47375;-60
2022/04/26 04:07:43;;;;;;;;;35.25;32.75;;;;;13.57;53.63;101009.41;2095876;28;47615;-59
2022/04/26 04:08:43;;;;;;;;;37.25;32.75;;;;;13.56;53.71;101013.88;2095828;28;47948;-58
2022/04/26 04:09:44;;;;;;;;;38.25;34.00;;;;;13.55;53.35;101021.00;2094511;28;47280;-59
2022/04/26 04:10:44;;;;;;;;;38.25;33.75;;;;;13.55;53.70;101022.78;2088175;28;47764;-59
2022/04/26 04:11:45;;;;;;;;;42.50;36.00;;;;;13.56;53.61;101029.88;2092266;28;47417;-59
2022/04/26 04:12:45;;;;;;;;;48.25;38.50;;;;;13.56;53.56;101027.19;2106789;27;47076;-60
2022/04/26 04:13:46;;;;;;;;;38.00;33.75;;;;;13.55;53.66;101022.78;2111422;27;47759;-60
2022/04/26 04:14:46;;;;;;;;;40.75;35.50;;;;;13.55;53.70;101028.13;2095172;28;47342;-59
2022/04/26 04:15:46;;;;;;;;;38.75;33.75;;;;;13.53;53.49;101030.84;2095469;28;47808;-60
2022/04/26 04:16:47;;;;;;;;;32.00;30.50;;;;;13.52;53.78;101021.09;2095728;28;47761;-60
2022/04/26 04:17:47;;;;;;;;;38.50;35.25;;;;;13.49;53.86;101034.53;2096104;28;45045;-60
2022/04/26 04:20:08;;;;;;;;;42.00;35.00;;;;;13.45;53.79;101023.97;2089091;28;47615;-59
2022/04/26 04:21:09;;;;;;;;;36.00;31.60;;;;;13.43;53.65;101032.00;2089503;28;47808;-59
2022/04/26 04:22:09;;;;;;;;;44.25;33.75;;;;;13.43;53.99;101031.13;2095983;28;47624;-60
2022/04/26 04:23:10;;;;;;;;;37.25;34.00;;;;;13.42;53.81;101026.72;2095819;28;48129;-59
2022/04/26 04:24:11;;;;;;;;;45.25;37.00;;;;;13.42;53.94;101032.06;2095344;28;47473;-59
2022/04/26 04:25:12;;;;;;;;;42.20;37.20;;;;;13.39;53.93;101027.69;2095829;28;47828;-59
2022/04/26 04:26:12;;;;;;;;;41.00;35.75;;;;;13.37;53.95;101032.22;2095119;28;47666;-59
2022/04/26 04:27:13;;;;;;;;;43.75;34.00;;;;;13.36;53.83;101033.13;2095111;28;47573;-57
2022/04/26 04:28:13;;;;;;;;;39.00;34.00;;;;;13.36;54.05;101029.59;2095799;28;48105;-59
2022/04/26 04:29:14;;;;;;;;;46.00;37.00;;;;;13.37;54.00;101042.00;2095722;28;47532;-58
2022/04/26 04:30:14;;;;;;;;;44.25;35.50;;;;;13.36;53.92;101042.91;2095861;28;48346;-59
2022/04/26 04:31:15;;;;;;;;;41.00;34.00;;;;;13.35;54.04;101036.72;2095762;28;47411;-59
2022/04/26 04:32:15;;;;;;;;;39.00;34.25;;;;;13.36;53.95;101041.13;2095626;28;47352;-59
2022/04/26 04:33:16;;;;;;;;;37.75;33.25;;;;;13.36;54.19;101040.25;2095871;28;47576;-59
2022/04/26 04:34:16;;;;;;;;;40.00;34.50;;;;;13.36;54.33;101040.25;2095674;28;47731;-59
2022/04/26 04:35:16;;;;;;;;;42.50;36.50;;;;;13.36;54.21;101045.56;2095993;28;47838;-58
2022/04/26 04:36:17;;;;;;;;;44.75;37.00;;;;;13.35;54.17;101049.16;2094499;28;47314;-57
2022/04/26 04:37:17;;;;;;;;;45.50;36.75;;;;;13.32;54.11;101046.56;2094479;28;47372;-59
2022/04/26 04:38:18;;;;;;;;;44.50;37.50;;;;;13.31;54.01;101050.13;2095739;28;47670;-59
2022/04/26 04:39:23;;;;;;;;;41.50;35.00;;;;;13.29;54.23;101049.31;2094471;28;45712;-59
2022/04/26 04:40:23;;;;;;;;;42.40;34.00;;;;;13.27;54.11;101049.38;2095215;28;47528;-58
2022/04/26 04:41:24;;;;;;;;;42.25;35.50;;;;;13.26;54.12;101047.63;2095593;28;47976;-59
2022/04/26 04:42:25;;;;;;;;;43.80;37.00;;;;;13.25;54.41;101053.88;2096375;28;46274;-59
2022/04/26 04:43:25;;;;;;;;;45.75;38.50;;;;;13.24;54.27;101052.13;2095619;28;45533;-59
2022/04/26 04:44:26;;;;;;;;;47.00;38.25;;;;;13.21;54.35;101053.09;2095755;27;47493;-59
2022/04/26 04:45:27;;;;;;;;;42.00;34.20;;;;;13.21;54.46;101061.06;2103090;27;47907;-58
2022/04/26 04:46:27;;;;;;;;;46.75;39.00;;;;;13.20;54.46;101055.75;2101268;27;47666;-59
2022/04/26 04:47:28;;;;;;;;;40.75;36.00;;;;;13.19;54.54;101062.88;2092978;28;47288;-59
2022/04/26 04:48:28;;;;;;;;;36.00;33.75;;;;;13.19;54.65;101065.53;2094993;28;47864;-59
2022/04/26 04:49:28;;;;;;;;;47.25;38.00;;;;;13.19;54.76;101057.56;2095426;27;47612;-61
2022/04/26 04:50:29;;;;;;;;;45.00;36.75;;;;;13.21;54.35;101057.50;2095224;28;47314;-59
2022/04/26 04:51:30;;;;;;;;;37.75;34.00;;;;;13.20;54.66;101067.28;2097093;28;47632;-60
2022/04/26 04:52:30;;;;;;;;;43.75;37.75;;;;;13.21;54.82;101063.75;2105516;27;47648;-59
2022/04/26 04:53:30;;;;;;;;;43.50;36.75;;;;;13.22;54.65;101064.63;2097225;27;47496;-59
2022/04/26 04:54:31;;;;;;;;;44.25;34.75;;;;;13.23;54.72;101061.03;2096914;28;47913;-57
2022/04/26 04:55:32;;;;;;;;;41.25;35.75;;;;;13.23;54.71;101069.91;2096891;28;47976;-59
2022/04/26 04:56:32;;;;;;;;;44.25;38.00;;;;;13.24;54.47;101065.44;2097194;28;45374;-58
2022/04/26 04:57:32;;;;;;;;;45.25;38.50;;;;;13.23;54.57;101066.38;2097032;28;47964;-60
2022/04/26 04:58:33;;;;;;;;;47.50;37.75;;;;;13.24;54.72;101066.31;2097178;28;47926;-59
2022/04/26 04:59:33;;;;;;;;;43.00;37.00;;;;;13.24;54.52;101065.44;2097303;28;47693;-58
2022/04/26 05:00:34;;;;;;;;;41.50;35.75;;;;;13.23;54.62;101069.91;2094210;28;48158;-60
2022/04/26 05:01:34;;;;;;;;;47.25;37.25;;;;;13.24;54.80;101074.31;2096799;28;48038;-58
2022/04/26 05:02:35;;;;;;;;;44.00;36.00;;;;;13.22;54.80;101068.16;2096910;28;47253;-60
2022/04/26 05:03:35;;;;;;;;;44.75;36.00;;;;;13.22;54.75;101075.28;2096879;28;47587;-58
2022/04/26 05:04:36;;;;;;;;;44.00;36.50;;;;;13.21;54.47;101076.16;2097029;28;47462;-60
2022/04/26 05:05:37;;;;;;;;;48.00;40.40;;;;;13.21;54.71;101078.81;2097163;28;45689;-59
2022/04/26 05:06:37;;;;;;;;;47.75;39.75;;;;;13.22;54.64;101078.81;2092813;28;47662;-59
2022/04/26 05:07:38;;;;;;;;;43.25;38.00;;;;;13.22;54.74;101075.28;2096717;28;47171;-57
2022/04/26 05:08:39;;;;;;;;;43.80;37.60;;;;;13.23;54.72;101075.22;2096907;28;46442;-59
2022/04/26 05:09:41;;;;;;;;;39.50;36.00;;;;;13.25;54.77;101081.38;2097091;28;47663;-60
2022/04/26 05:10:42;;;;;;;;;41.40;35.60;;;;;13.25;54.70;101085.84;2096802;28;48455;-59
2022/04/26 05:11:42;;;;;;;;;47.50;39.75;;;;;13.26;54.45;101084.94;2096822;28;47338;-59
2022/04/26 05:12:43;;;;;;;;;50.00;39.75;;;;;13.26;54.70;101087.59;2091987;28;47419;-59
2022/04/26 05:13:43;;;;;;;;;47.25;39.50;;;;;13.24;54.69;101086.78;2094545;28;47217;-58
2022/04/26 05:14:44;;;;;;;;;47.50;39.25;;;;;13.25;54.63;101088.50;2096789;28;47921;-59
2022/04/26 05:15:44;;;;;;;;;50.50;39.50;;;;;13.25;54.69;101085.84;2097390;28;45620;-60
2022/04/26 05:16:45;;;;;;;;;49.00;40.00;;;;;13.25;54.73;101091.19;2095262;28;47490;-60
2022/04/26 05:17:45;;;;;;;;;47.25;39.50;;;;;13.25;54.69;101088.50;2096096;28;47824;-59
2022/04/26 05:18:46;;;;;;;;;48.50;40.00;;;;;13.24;54.80;101092.09;2096621;28;47535;-60
2022/04/26 05:19:46;;;;;;;;;43.50;37.00;;;;;13.23;54.61;101087.69;2096800;28;47398;-59
2022/04/26 05:20:46;;;;;;;;;46.75;37.50;;;;;13.21;54.89;101094.81;2097054;28;47746;-59
2022/04/26 05:21:47;;;;;;;;;51.50;40.50;;;;;13.18;54.76;101093.13;2096639;28;47307;-59
2022/04/26 05:25:26;;;;;;;;;50.40;40.80;;;;;13.20;54.93;101106.41;2088682;28;47734;-60
2022/04/26 05:26:26;;;;;;;;;44.00;36.50;;;;;13.19;55.00;101102.84;2092558;28;47224;-60
2022/04/26 05:27:29;;;;;;;;;50.50;40.75;;;;;13.21;55.18;101106.38;2096255;28;47369;-60
2022/04/26 05:28:30;;;;;;;;;49.20;40.00;;;;;13.21;54.91;101102.81;2096391;28;48127;-59
2022/04/26 05:29:30;;;;;;;;;49.50;39.75;;;;;13.20;54.87;101106.41;2095742;28;47430;-59
2022/04/26 05:30:30;;;;;;;;;48.75;40.50;;;;;13.20;54.99;101104.59;2096332;28;47595;-59
2022/04/26 05:31:31;;;;;;;;;48.25;41.00;;;;;13.19;55.04;101110.84;2095055;28;47806;-59
2022/04/26 05:32:32;;;;;;;;;51.50;40.75;;;;;13.19;55.05;101115.31;2094448;28;47664;-60
2022/04/26 05:33:32;;;;;;;;;47.25;40.25;;;;;13.19;55.19;101110.84;2120028;27;47553;-59
2022/04/26 05:34:32;;;;;;;;;47.50;39.75;;;;;13.19;54.65;101108.19;2120785;27;47601;-59
2022/04/26 05:35:33;;;;;;;;;46.00;38.25;;;;;13.20;55.08;101112.59;2096338;27;47546;-58
2022/04/26 05:36:33;;;;;;;;;48.00;39.75;;;;;13.22;54.72;101116.13;2104555;28;47270;-58
2022/04/26 05:37:34;;;;;;;;;49.00;40.75;;;;;13.23;55.13;101123.22;2113212;27;47615;-59
2022/04/26 05:38:34;;;;;;;;;48.50;41.00;;;;;13.25;55.14;101123.16;2096649;28;47493;-57
2022/04/26 05:39:35;;;;;;;;;48.00;39.25;;;;;13.25;54.92;101120.50;2096757;28;47850;-61
2022/04/26 05:40:35;;;;;;;;;50.75;41.50;;;;;13.25;55.00;101116.03;2098126;28;47950;-59
2022/04/26 05:41:36;;;;;;;;;51.50;41.00;;;;;13.28;55.18;101117.75;2102427;27;47617;-59
2022/04/26 05:42:38;;;;;;;;;47.25;39.00;;;;;13.28;55.03;101124.88;2101451;28;47951;-58
2022/04/26 05:43:38;;;;;;;;;50.20;40.80;;;;;13.28;54.96;101128.41;2098256;27;47778;-59
2022/04/26 05:44:39;;;;;;;;;50.75;42.25;;;;;13.28;54.96;101125.75;2089234;28;47625;-59
2022/04/26 05:45:39;;;;;;;;;51.00;42.00;;;;;13.26;54.90;101130.25;2098903;28;47104;-59
2022/04/26 05:46:39;;;;;;;;;50.00;42.00;;;;;13.25;54.74;101132.03;2097130;28;47961;-58
2022/04/26 05:47:41;;;;;;;;;51.75;42.00;;;;;13.27;55.13;101125.78;2096735;28;47294;-59
2022/04/26 05:48:42;;;;;;;;;48.60;39.00;;;;;13.25;55.04;101132.03;2096385;28;47823;-59
2022/04/26 05:49:42;;;;;;;;;48.50;39.75;;;;;13.24;55.08;101129.41;2095178;28;47470;-58
2022/04/26 05:50:43;;;;;;;;;47.25;39.00;;;;;13.23;55.05;101136.53;2095553;27;47892;-59
2022/04/26 05:51:43;;;;;;;;;50.75;42.00;;;;;13.21;55.04;101132.13;2096847;28;48328;-60
2022/04/26 05:52:44;;;;;;;;;58.50;45.00;;;;;13.20;55.25;101127.72;2096768;28;47821;-58
2022/04/26 05:53:44;;;;;;;;;48.00;40.25;;;;;13.19;54.97;101133.97;2096514;28;48082;-59
2022/04/26 05:54:45;;;;;;;;;48.50;38.75;;;;;13.19;55.10;101142.84;2095532;28;47217;-60
2022/04/26 05:55:45;;;;;;;;;48.50;41.25;;;;;13.17;55.21;101141.97;2093954;28;47581;-59
2022/04/26 05:56:45;;;;;;;;;52.75;43.00;;;;;13.17;55.27;101136.63;2099712;27;48061;-58
2022/04/26 05:57:46;;;;;;;;;48.50;39.50;;;;;13.19;55.22;101132.16;2099961;28;47669;-58
2022/04/26 05:58:46;;;;;;;;;47.25;39.50;;;;;13.20;55.27;101135.72;2096461;28;48172;-58
2022/04/26 05:59:47;;;;;;;;;52.75;40.75;;;;;13.22;55.32;101129.44;2099624;28;47034;-58
2022/04/26 06:00:47;;;;;;;;;50.50;40.50;;;;;13.23;55.34;101130.31;2098320;28;47211;-58
2022/04/26 06:01:49;;;;;;;;;51.00;41.25;;;;;13.25;55.47;101142.69;2091826;27;47595;-58
2022/04/26 06:02:49;;;;;;;;;47.00;39.00;;;;;13.28;55.69;101138.19;2096972;28;48255;-60
2022/04/26 06:03:49;;;;;;;;;50.75;42.75;;;;;13.28;55.61;101135.53;2095800;28;47440;-59
2022/04/26 06:04:50;;;;;;;;;50.00;40.00;;;;;13.30;55.41;101136.34;2100046;27;47456;-59
2022/04/26 06:05:52;;;;;;;;;54.75;45.50;;;;;13.30;55.34;101133.69;2100330;28;47367;-59
2022/04/26 06:06:53;;;;;;;;;56.60;45.40;;;;;13.33;55.51;101136.25;2096498;28;47646;-59
2022/04/26 06:07:53;;;;;;;;;55.00;44.00;;;;;13.33;55.26;101134.47;2096291;28;47553;-58
2022/04/26 06:08:53;;;;;;;;;50.50;42.00;;;;;13.34;55.23;101138.94;2097575;28;47443;-59
2022/04/26 06:09:55;;;;;;;;;49.50;41.25;;;;;13.36;55.15;101130.88;2097877;28;48175;-59
2022/04/26 06:10:55;;;;;;;;;55.60;46.00;;;;;13.37;55.41;101140.63;2098092;28;47795;-60
2022/04/26 06:11:57;;;;;;;;;53.75;43.00;;;;;13.37;55.29;101136.16;2093819;28;47734;-59
2022/04/26 06:12:58;;;;;;;;;54.40;45.40;;;;;13.38;55.33;101137.03;2097790;28;47557;-60
2022/04/26 06:14:00;;;;;;;;;53.75;44.50;;;;;13.38;55.24;101132.59;2099128;28;47842;-60
2022/04/26 06:15:01;;;;;;;;;50.00;42.60;;;;;13.39;55.32;101134.34;2095856;28;47914;-60
2022/04/26 06:16:01;;;;;;;;;53.75;43.00;;;;;13.40;55.27;101132.53;2099580;28;47978;-60
2022/04/26 06:17:02;;;;;;;;;52.50;43.50;;;;;13.43;55.25;101133.31;2098563;28;47603;-59
2022/04/26 06:18:02;;;;;;;;;55.00;44.75;;;;;13.44;55.14;101139.53;2096843;28;47296;-60
2022/04/26 06:19:03;;;;;;;;;53.75;44.50;;;;;13.46;55.22;101127.03;2096487;28;47432;-59
2022/04/26 06:20:04;;;;;;;;;52.50;43.25;;;;;13.47;55.29;101123.47;2096756;28;47907;-59
2022/04/26 06:21:04;;;;;;;;;57.80;46.00;;;;;13.48;55.15;101134.09;2096454;27;47725;-59
2022/04/26 06:22:05;;;;;;;;;49.25;40.50;;;;;13.49;55.23;101125.19;2093525;28;47473;-59
2022/04/26 06:23:05;;;;;;;;;53.75;44.25;;;;;13.52;55.25;101126.88;2094616;28;48212;-59
2022/04/26 06:24:06;;;;;;;;;52.50;43.50;;;;;13.52;55.32;101121.53;2097287;28;48261;-59
2022/04/26 06:25:06;;;;;;;;;58.25;46.25;;;;;13.53;55.15;101126.84;2086697;28;47568;-59
2022/04/26 06:26:07;;;;;;;;;52.50;43.00;;;;;13.55;55.22;101129.44;2091750;28;47823;-59
2022/04/26 06:27:08;;;;;;;;;51.50;44.25;;;;;13.56;55.13;101133.88;2096417;28;47732;-59
2022/04/26 06:28:09;;;;;;;;;50.75;42.50;;;;;13.57;54.87;101132.94;2092698;28;48098;-58
2022/04/26 06:29:09;;;;;;;;;57.80;45.60;;;;;13.57;55.12;101130.28;2099519;28;47538;-59
2022/04/26 06:30:10;;;;;;;;;56.75;45.00;;;;;13.57;55.04;101132.94;2097850;27;47446;-59
2022/04/26 06:31:11;;;;;;;;;56.20;45.60;;;;;13.58;55.06;101139.16;2100954;28;47425;-59
2022/04/26 06:32:11;;;;;;;;;54.00;44.25;;;;;13.58;54.94;101145.38;2097832;28;47833;-61
2022/04/26 06:33:12;;;;;;;;;56.50;45.00;;;;;13.59;55.05;101141.78;2095624;28;47650;-57
2022/04/26 06:34:13;;;;;;;;;58.25;46.75;;;;;13.60;55.01;101145.34;2098740;27;47456;-59
2022/04/26 06:35:13;;;;;;;;;55.00;45.40;;;;;13.60;54.91;101150.69;2091767;28;47696;-58
2022/04/26 06:36:14;;;;;;;;;59.25;47.25;;;;;13.60;54.98;101148.00;2098020;27;48153;-58
2022/04/26 06:37:14;;;;;;;;;57.00;45.00;;;;;13.60;55.17;101146.22;2097897;28;47910;-56
2022/04/26 06:38:16;;;;;;;;;53.00;44.50;;;;;13.60;55.04;101156.00;2095539;28;47542;-56
2022/04/26 06:39:17;;;;;;;;;54.40;44.60;;;;;13.59;55.00;101154.22;2098820;28;48145;-58
2022/04/26 06:40:17;;;;;;;;;54.50;45.25;;;;;13.57;54.81;101151.63;2104080;27;47158;-57
2022/04/26 06:41:18;;;;;;;;;59.00;47.50;;;;;13.55;55.09;101156.13;2103472;27;47974;-56
2022/04/26 06:42:19;;;;;;;;;53.80;45.00;;;;;13.55;55.10;101162.31;2110440;27;47223;-56
2022/04/26 06:43:20;;;;;;;;;54.00;45.00;;;;;13.55;54.83;101161.44;2108272;27;46557;-58
2022/04/26 06:44:20;;;;;;;;;58.75;47.50;;;;;13.53;55.19;101156.16;2098202;27;47548;-60
2022/04/26 06:45:21;;;;;;;;;57.00;45.50;;;;;13.53;55.19;101160.63;2099418;28;48033;-58
2022/04/26 06:46:21;;;;;;;;;54.50;43.50;;;;;13.54;55.22;101157.91;2094362;28;47545;-57
2022/04/26 06:47:22;;;;;;;;;56.50;46.50;;;;;13.53;55.19;101164.16;2098809;27;47896;-58
2022/04/26 06:48:22;;;;;;;;;53.25;43.75;;;;;13.54;55.28;101163.25;2098585;28;47522;-58
2022/04/26 06:49:22;;;;;;;;;61.25;48.50;;;;;13.56;55.17;101165.88;2096142;28;47497;-57
2022/04/26 06:50:23;;;;;;;;;55.75;43.50;;;;;13.55;54.99;101166.78;2099427;28;47475;-59
2022/04/26 06:51:24;;;;;;;;;51.50;44.00;;;;;13.54;54.85;101162.38;2092621;28;47990;-58
2022/04/26 06:52:24;;;;;;;;;59.00;47.20;;;;;13.54;55.21;101160.56;2098304;27;47506;-58
2022/04/26 06:53:25;;;;;;;;;58.50;47.50;;;;;13.54;55.15;101160.56;2098424;28;47999;-58
2022/04/26 06:54:25;;;;;;;;;53.25;44.75;;;;;13.55;55.22;101161.44;2094367;28;47402;-58
2022/04/26 06:55:26;;;;;;;;;56.50;45.75;;;;;13.56;55.21;101168.53;2094869;28;47743;-58
2022/04/26 06:56:26;;;;;;;;;54.00;44.25;;;;;13.55;55.01;101159.66;2095663;28;47287;-58
2022/04/26 06:57:27;;;;;;;;;58.75;46.25;;;;;13.55;55.18;101164.13;2095879;28;47447;-58
2022/04/26 06:58:27;;;;;;;;;57.75;46.75;;;;;13.57;55.55;101162.28;2094412;28;47615;-57
2022/04/26 06:59:27;;;;;;;;;58.75;46.75;;;;;13.59;55.02;101167.56;2087704;28;47640;-58
2022/04/26 07:00:28;;;;;;;;;57.25;46.00;;;;;13.58;54.86;101165.81;2095623;28;45507;-57
2022/04/26 07:01:28;;;;;;;;;57.25;45.00;;;;;13.58;55.14;101169.38;2094588;28;47851;-60
2022/04/26 07:02:29;;;;;;;;;57.50;46.00;;;;;13.58;55.07;101165.81;2095051;28;48178;-58
2022/04/26 07:03:29;;;;;;;;;56.25;46.75;;;;;13.55;54.79;101169.44;2096049;28;47730;-57
2022/04/26 07:04:30;;;;;;;;;58.25;46.50;;;;;13.54;55.21;101170.38;2096158;28;47407;-58
2022/04/26 07:05:31;;;;;;;;;58.80;46.00;;;;;13.53;55.16;101171.28;2095828;28;47440;-58
2022/04/26 07:06:31;;;;;;;;;58.25;47.00;;;;;13.51;54.94;101168.66;2095972;28;47797;-57
2022/04/26 07:07:32;;;;;;;;;58.00;46.50;;;;;13.50;55.09;101174.91;2096211;28;47728;-58
2022/04/26 07:08:32;;;;;;;;;57.75;46.50;;;;;13.50;55.26;101172.25;2095966;28;47880;-57
2022/04/26 07:09:33;;;;;;;;;55.25;45.50;;;;;13.51;55.15;101170.47;2097531;28;47460;-59
2022/04/26 07:10:34;;;;;;;;;57.50;46.00;;;;;13.51;55.18;101170.47;2088106;27;47912;-57
2022/04/26 07:11:34;;;;;;;;;58.40;48.00;;;;;13.52;55.15;101177.53;2090961;28;47740;-58
2022/04/26 07:12:35;;;;;;;;;58.00;48.00;;;;;13.52;54.98;101172.22;2095936;28;47389;-57
2022/04/26 07:13:35;;;;;;;;;54.50;44.75;;;;;13.53;55.02;101176.63;2095290;28;47717;-58
2022/04/26 07:14:36;;;;;;;;;58.75;47.25;;;;;13.53;55.05;101190.81;2095340;28;47658;-58
2022/04/26 07:15:37;;;;;;;;;52.00;44.20;;;;;13.54;55.01;101175.69;2095322;28;47401;-58
2022/04/26 07:16:38;;;;;;;;;56.25;46.00;;;;;13.53;54.99;101189.97;2093850;28;47440;-57
2022/04/26 07:17:40;;;;;;;;;55.25;43.75;;;;;13.53;54.87;101184.63;2096221;27;47245;-57
2022/04/26 07:18:40;;;;;;;;;64.20;50.00;;;;;13.54;55.02;101181.03;2092239;28;47444;-60
2022/04/26 07:19:41;;;;;;;;;60.50;46.75;;;;;13.53;54.91;101187.28;2091697;28;47628;-57
2022/04/26 07:20:44;;;;;;;;;58.25;48.00;;;;;13.53;55.01;101188.16;2095760;28;47323;-58
2022/04/26 07:21:46;;;;;;;;;56.00;46.20;;;;;13.53;55.07;101193.50;2093601;28;47713;-59
2022/04/26 07:22:47;;;;;;;;;58.80;47.20;;;;;13.53;55.02;101189.97;2095445;28;47530;-58
2022/04/26 07:23:47;;;;;;;;;55.25;45.00;;;;;13.54;55.17;101183.69;2090144;28;47190;-57
2022/04/26 07:24:48;;;;;;;;;55.25;45.75;;;;;13.55;55.24;101185.44;2087376;28;47533;-56
2022/04/26 07:25:48;;;;;;;;;57.25;45.75;;;;;13.57;55.17;101188.06;2087742;28;47523;-59
2022/04/26 07:26:50;;;;;;;;;61.75;49.00;;;;;13.55;55.14;101189.00;2091301;28;47521;-58
2022/04/26 07:27:50;;;;;;;;;54.40;44.80;;;;;13.57;55.42;101183.63;2096407;28;48067;-59
2022/04/26 07:28:50;;;;;;;;;59.25;48.25;;;;;13.58;55.42;101184.50;2095926;28;47967;-59
2022/04/26 07:29:52;;;;;;;;;62.00;47.75;;;;;13.59;55.15;101178.22;2096081;28;47521;-58
2022/04/26 07:30:53;;;;;;;;;52.40;43.00;;;;;13.58;55.11;101185.34;2095056;28;47849;-59
2022/04/26 07:31:53;;;;;;;;;58.80;46.20;;;;;13.59;55.15;101186.22;2096048;28;47770;-58
2022/04/26 07:34:21;;;;;;;;;59.60;47.40;;;;;13.57;55.15;101180.06;2096035;28;47647;-57
2022/04/26 07:35:22;;;;;;;;;54.20;43.60;;;;;13.58;55.26;101201.34;2095745;28;47687;-59
2022/04/26 07:36:23;;;;;;;;;54.60;45.00;;;;;13.59;55.10;101200.44;2095890;28;47848;-59
2022/04/26 07:37:23;;;;;;;;;57.00;47.25;;;;;13.60;55.28;101198.69;2112058;27;47754;-59
2022/04/26 07:38:24;;;;;;;;;58.75;46.75;;;;;13.59;55.13;101203.09;2112194;27;47687;-58
2022/04/26 07:39:25;;;;;;;;;58.00;46.75;;;;;13.59;55.41;101202.22;2095914;28;48017;-59
2022/04/26 07:40:26;;;;;;;;;56.60;45.20;;;;;13.61;55.36;101193.31;2096162;28;47630;-58
2022/04/26 07:41:26;;;;;;;;;62.25;48.25;;;;;13.65;55.27;101199.44;2095490;28;46798;-58
2022/04/26 07:42:27;;;;;;;;;57.75;47.25;;;;;13.66;55.27;101199.38;2095724;28;47433;-58
2022/04/26 07:43:27;;;;;;;;;53.50;42.75;;;;;13.69;55.21;101203.75;2093673;28;46473;-57
2022/04/26 07:44:29;;;;;;;;;61.00;48.25;;;;;13.71;55.25;101200.13;2094043;28;48116;-59
2022/04/26 07:45:30;;;;;;;;;59.80;47.60;;;;;13.71;55.22;101202.78;2095967;28;47865;-58
2022/04/26 07:46:31;;;;;;;;;56.60;46.00;;;;;13.72;55.09;101204.56;2093811;28;47485;-59
2022/04/26 07:47:31;;;;;;;;;61.25;48.50;;;;;13.72;55.03;101207.22;2094633;28;47486;-59
2022/04/26 07:48:34;;;;;;;;;58.50;47.75;;;;;13.74;55.18;101207.19;2095860;28;47986;-58
2022/04/26 07:49:36;;;;;;;;;58.20;46.20;;;;;13.73;55.07;101206.31;2090064;28;47681;-59
2022/04/26 07:50:36;;;;;;;;;59.40;46.20;;;;;13.74;55.28;101208.06;2089238;28;46737;-58
2022/04/26 07:51:37;;;;;;;;;56.50;47.00;;;;;13.74;55.16;101216.06;2095550;28;47441;-58
2022/04/26 07:52:38;;;;;;;;;60.75;47.00;;;;;13.74;55.18;101213.41;2091056;28;47501;-58
2022/04/26 07:53:38;;;;;;;;;56.00;46.75;;;;;13.76;55.22;101216.03;2092199;28;47581;-57
2022/04/26 07:54:39;;;;;;;;;61.50;47.50;;;;;13.77;54.70;101218.66;2095665;28;48965;-58
2022/04/26 07:55:39;;;;;;;;;58.00;44.50;;;;;13.79;54.71;101219.47;2095534;28;48061;-58
2022/04/26 07:56:40;;;;;;;;;58.25;48.25;;;;;13.78;54.67;101215.06;2095681;28;47810;-58
2022/04/26 07:57:40;;;;;;;;;57.75;46.00;;;;;13.78;54.52;101217.72;2095613;28;47470;-59
2022/04/26 07:58:41;;;;;;;;;58.25;47.25;;;;;13.78;54.46;101215.06;2096078;28;47963;-58
2022/04/26 07:59:41;;;;;;;;;59.50;46.25;;;;;13.80;55.07;101218.56;2095782;28;47234;-58
2022/04/26 08:00:42;;;;;;;;;60.75;47.75;;;;;13.82;54.59;101226.50;2095024;28;47484;-58
2022/04/26 08:01:42;;;;;;;;;52.00;44.50;;;;;13.83;54.79;101215.78;2087382;28;47255;-58
2022/04/26 08:02:43;;;;;;;;;57.00;46.50;;;;;13.84;54.58;101222.88;2095401;28;47360;-57
2022/04/26 08:03:43;;;;;;;;;56.00;43.50;;;;;13.86;54.54;101222.00;2098820;28;47638;-57
2022/04/26 08:04:43;;;;;;;;;59.00;47.75;;;;;13.88;54.34;101230.81;2096675;27;47644;-60
2022/04/26 08:05:44;;;;;;;;;56.25;44.50;;;;;13.90;54.48;101228.97;2093663;28;47427;-59
2022/04/26 08:06:44;;;;;;;;;57.00;46.25;;;;;13.93;54.42;101228.88;2091848;28;47679;-58
2022/04/26 08:07:45;;;;;;;;;54.75;45.25;;;;;13.95;54.08;101230.59;2094424;28;47491;-59
2022/04/26 08:08:46;;;;;;;;;57.50;45.00;;;;;13.97;54.06;101225.22;2094332;28;47552;-59
2022/04/26 08:09:46;;;;;;;;;57.00;46.00;;;;;13.97;54.29;101231.41;2094621;28;47729;-56
2022/04/26 08:10:47;;;;;;;;;55.50;46.25;;;;;13.98;54.08;101229.66;2095417;28;47617;-58
2022/04/26 08:11:49;;;;;;;;;55.50;44.50;;;;;13.97;53.83;101227.88;2094489;28;47869;-59
2022/04/26 08:12:49;;;;;;;;;58.00;46.40;;;;;13.98;53.73;101227.00;2088327;28;47339;-58
2022/04/26 08:13:50;;;;;;;;;56.50;45.00;;;;;13.99;53.85;101236.75;2088942;28;48006;-59
2022/04/26 08:14:50;;;;;;;;;55.00;44.25;;;;;13.99;53.84;101234.94;2095655;28;47754;-59
2022/04/26 08:15:51;;;;;;;;;55.00;43.00;;;;;13.99;53.90;101237.63;2095793;28;47559;-59
2022/04/26 08:16:52;;;;;;;;;55.00;45.00;;;;;14.00;53.78;101238.50;2094460;28;47694;-59